sensor_id;sensor_type;location;lat;lon;timestamp;P1;durP1;ratioP1;P2;durP2;ratioP2
36931;SDS011;22847;42.654;23.370;2023-07-29T00:00:21;5.47;;;3.05;;
36931;SDS011;22847;42.654;23.370;2023-07-29T00:02:47;5.70;;;3.10;;
36931;SDS011;22847;42.654;23.370;2023-07-29T00:05:12;7.85;;;3.28;;
36931;SDS011;22847;42.654;23.370;2023-07-29T00:07:38;5.80;;;3.28;;
36931;SDS011;22847;42.654;23.370;2023-07-29T00:10:03;4.72;;;2.80;;
36931;SDS011;22847;42.654;23.370;2023-07-29T00:12:28;8.90;;;3.60;;
36931;SDS011;22847;42.654;23.370;2023-07-29T00:14:54;5.68;;;3.38;;
36931;SDS011;22847;42.654;23.370;2023-07-29T00:17:20;4.78;;;2.85;;
36931;SDS011;22847;42.654;23.370;2023-07-29T00:19:45;6.47;;;3.47;;
36931;SDS011;22847;42.654;23.370;2023-07-29T00:22:11;4.78;;;3.40;;
36931;SDS011;22847;42.654;23.370;2023-07-29T00:24:37;5.40;;;3.40;;
36931;SDS011;22847;42.654;23.370;2023-07-29T00:27:02;3.90;;;3.15;;
36931;SDS011;22847;42.654;23.370;2023-07-29T00:29:28;3.72;;;3.33;;
36931;SDS011;22847;42.654;23.370;2023-07-29T00:31:53;4.57;;;3.58;;
36931;SDS011;22847;42.654;23.370;2023-07-29T00:34:18;6.40;;;3.60;;
36931;SDS011;22847;42.654;23.370;2023-07-29T00:36:45;5.93;;;3.45;;
36931;SDS011;22847;42.654;23.370;2023-07-29T00:39:10;4.60;;;3.97;;
36931;SDS011;22847;42.654;23.370;2023-07-29T00:41:35;5.88;;;3.17;;
36931;SDS011;22847;42.654;23.370;2023-07-29T00:44:01;5.40;;;3.60;;
36931;SDS011;22847;42.654;23.370;2023-07-29T00:46:27;7.15;;;3.42;;
36931;SDS011;22847;42.654;23.370;2023-07-29T00:48:54;7.45;;;3.47;;
36931;SDS011;22847;42.654;23.370;2023-07-29T00:51:20;4.82;;;3.28;;
36931;SDS011;22847;42.654;23.370;2023-07-29T00:53:46;4.70;;;3.47;;
36931;SDS011;22847;42.654;23.370;2023-07-29T00:56:11;7.78;;;3.92;;
36931;SDS011;22847;42.654;23.370;2023-07-29T00:58:37;7.82;;;3.78;;
36931;SDS011;22847;42.654;23.370;2023-07-29T01:01:03;5.95;;;4.07;;
36931;SDS011;22847;42.654;23.370;2023-07-29T01:03:28;9.35;;;3.83;;
36931;SDS011;22847;42.654;23.370;2023-07-29T01:13:53;5.13;;;3.60;;
36931;SDS011;22847;42.654;23.370;2023-07-29T01:16:30;5.25;;;3.60;;
36931;SDS011;22847;42.654;23.370;2023-07-29T01:18:59;9.43;;;3.75;;
36931;SDS011;22847;42.654;23.370;2023-07-29T01:21:35;5.20;;;3.25;;
36931;SDS011;22847;42.654;23.370;2023-07-29T01:24:01;4.18;;;3.30;;
36931;SDS011;22847;42.654;23.370;2023-07-29T01:26:26;5.82;;;3.28;;
36931;SDS011;22847;42.654;23.370;2023-07-29T01:28:54;4.88;;;3.25;;
36931;SDS011;22847;42.654;23.370;2023-07-29T01:31:29;5.97;;;3.05;;
36931;SDS011;22847;42.654;23.370;2023-07-29T01:34:01;3.47;;;3.00;;
36931;SDS011;22847;42.654;23.370;2023-07-29T01:36:35;4.53;;;2.80;;
36931;SDS011;22847;42.654;23.370;2023-07-29T01:39:05;6.15;;;3.60;;
36931;SDS011;22847;42.654;23.370;2023-07-29T01:41:31;4.15;;;3.20;;
36931;SDS011;22847;42.654;23.370;2023-07-29T01:43:58;8.25;;;3.47;;
36931;SDS011;22847;42.654;23.370;2023-07-29T01:46:25;5.95;;;3.10;;
36931;SDS011;22847;42.654;23.370;2023-07-29T01:48:50;6.60;;;3.38;;
36931;SDS011;22847;42.654;23.370;2023-07-29T01:51:16;6.00;;;3.33;;
36931;SDS011;22847;42.654;23.370;2023-07-29T01:53:41;5.03;;;3.35;;
36931;SDS011;22847;42.654;23.370;2023-07-29T01:56:06;3.83;;;2.88;;
36931;SDS011;22847;42.654;23.370;2023-07-29T01:58:32;3.63;;;2.90;;
36931;SDS011;22847;42.654;23.370;2023-07-29T02:00:57;4.47;;;3.25;;
36931;SDS011;22847;42.654;23.370;2023-07-29T02:03:23;6.43;;;3.47;;
36931;SDS011;22847;42.654;23.370;2023-07-29T02:05:48;6.93;;;3.45;;
36931;SDS011;22847;42.654;23.370;2023-07-29T02:08:14;7.53;;;3.92;;
36931;SDS011;22847;42.654;23.370;2023-07-29T02:10:39;7.88;;;3.80;;
36931;SDS011;22847;42.654;23.370;2023-07-29T02:13:05;4.63;;;3.35;;
36931;SDS011;22847;42.654;23.370;2023-07-29T02:15:30;5.03;;;3.40;;
36931;SDS011;22847;42.654;23.370;2023-07-29T02:17:56;4.93;;;3.17;;
36931;SDS011;22847;42.654;23.370;2023-07-29T02:20:21;5.93;;;2.80;;
36931;SDS011;22847;42.654;23.370;2023-07-29T02:22:46;6.95;;;3.15;;
36931;SDS011;22847;42.654;23.370;2023-07-29T02:25:13;6.15;;;3.40;;
36931;SDS011;22847;42.654;23.370;2023-07-29T02:27:39;5.28;;;3.20;;
36931;SDS011;22847;42.654;23.370;2023-07-29T02:30:05;7.70;;;3.13;;
36931;SDS011;22847;42.654;23.370;2023-07-29T02:32:31;6.10;;;3.10;;
36931;SDS011;22847;42.654;23.370;2023-07-29T02:34:56;3.88;;;3.20;;
36931;SDS011;22847;42.654;23.370;2023-07-29T02:37:21;5.82;;;3.35;;
36931;SDS011;22847;42.654;23.370;2023-07-29T02:39:47;3.45;;;2.85;;
36931;SDS011;22847;42.654;23.370;2023-07-29T02:42:12;6.95;;;2.90;;
36931;SDS011;22847;42.654;23.370;2023-07-29T02:44:38;4.20;;;3.13;;
36931;SDS011;22847;42.654;23.370;2023-07-29T02:47:05;6.43;;;3.30;;
36931;SDS011;22847;42.654;23.370;2023-07-29T02:49:30;4.50;;;3.28;;
36931;SDS011;22847;42.654;23.370;2023-07-29T02:51:55;6.50;;;3.28;;
36931;SDS011;22847;42.654;23.370;2023-07-29T02:54:21;3.55;;;2.75;;
36931;SDS011;22847;42.654;23.370;2023-07-29T02:56:46;5.78;;;3.33;;
36931;SDS011;22847;42.654;23.370;2023-07-29T02:59:12;4.88;;;2.80;;
36931;SDS011;22847;42.654;23.370;2023-07-29T03:01:37;5.90;;;3.08;;
36931;SDS011;22847;42.654;23.370;2023-07-29T03:04:02;5.03;;;2.90;;
36931;SDS011;22847;42.654;23.370;2023-07-29T03:06:28;5.47;;;3.00;;
36931;SDS011;22847;42.654;23.370;2023-07-29T03:08:54;5.40;;;3.38;;
36931;SDS011;22847;42.654;23.370;2023-07-29T03:11:21;5.18;;;3.40;;
36931;SDS011;22847;42.654;23.370;2023-07-29T03:13:46;3.38;;;2.92;;
36931;SDS011;22847;42.654;23.370;2023-07-29T03:16:12;5.60;;;3.28;;
36931;SDS011;22847;42.654;23.370;2023-07-29T03:18:40;10.20;;;3.38;;
36931;SDS011;22847;42.654;23.370;2023-07-29T03:21:07;7.25;;;3.50;;
36931;SDS011;22847;42.654;23.370;2023-07-29T03:23:33;4.45;;;3.40;;
36931;SDS011;22847;42.654;23.370;2023-07-29T03:25:59;4.13;;;3.17;;
36931;SDS011;22847;42.654;23.370;2023-07-29T03:28:29;4.75;;;3.45;;
36931;SDS011;22847;42.654;23.370;2023-07-29T03:30:55;5.75;;;3.33;;
36931;SDS011;22847;42.654;23.370;2023-07-29T03:33:22;8.02;;;3.80;;
36931;SDS011;22847;42.654;23.370;2023-07-29T03:35:48;3.90;;;3.08;;
36931;SDS011;22847;42.654;23.370;2023-07-29T03:38:14;6.95;;;3.65;;
36931;SDS011;22847;42.654;23.370;2023-07-29T03:40:40;5.32;;;3.70;;
36931;SDS011;22847;42.654;23.370;2023-07-29T03:43:06;5.38;;;3.15;;
36931;SDS011;22847;42.654;23.370;2023-07-29T03:45:33;6.93;;;4.03;;
36931;SDS011;22847;42.654;23.370;2023-07-29T03:47:59;7.95;;;3.83;;
36931;SDS011;22847;42.654;23.370;2023-07-29T03:50:24;8.52;;;4.10;;
36931;SDS011;22847;42.654;23.370;2023-07-29T03:52:50;7.43;;;4.25;;
36931;SDS011;22847;42.654;23.370;2023-07-29T03:55:15;5.25;;;3.50;;
36931;SDS011;22847;42.654;23.370;2023-07-29T03:57:41;6.15;;;3.67;;
36931;SDS011;22847;42.654;23.370;2023-07-29T04:00:07;6.35;;;4.00;;
36931;SDS011;22847;42.654;23.370;2023-07-29T04:02:34;4.88;;;3.38;;
36931;SDS011;22847;42.654;23.370;2023-07-29T04:05:02;8.20;;;3.67;;
36931;SDS011;22847;42.654;23.370;2023-07-29T04:07:28;4.18;;;3.50;;
36931;SDS011;22847;42.654;23.370;2023-07-29T04:09:55;7.28;;;3.55;;
36931;SDS011;22847;42.654;23.370;2023-07-29T04:12:20;6.25;;;3.75;;
36931;SDS011;22847;42.654;23.370;2023-07-29T04:14:46;6.03;;;3.70;;
36931;SDS011;22847;42.654;23.370;2023-07-29T04:17:12;4.43;;;3.72;;
36931;SDS011;22847;42.654;23.370;2023-07-29T04:19:37;5.30;;;3.67;;
36931;SDS011;22847;42.654;23.370;2023-07-29T04:22:03;4.82;;;3.65;;
36931;SDS011;22847;42.654;23.370;2023-07-29T04:24:28;6.45;;;3.63;;
36931;SDS011;22847;42.654;23.370;2023-07-29T04:26:54;7.22;;;3.90;;
36931;SDS011;22847;42.654;23.370;2023-07-29T04:29:19;5.28;;;3.90;;
36931;SDS011;22847;42.654;23.370;2023-07-29T04:31:45;5.55;;;3.50;;
36931;SDS011;22847;42.654;23.370;2023-07-29T04:34:11;5.60;;;3.90;;
36931;SDS011;22847;42.654;23.370;2023-07-29T04:36:36;5.25;;;3.70;;
36931;SDS011;22847;42.654;23.370;2023-07-29T04:39:02;6.90;;;3.92;;
36931;SDS011;22847;42.654;23.370;2023-07-29T04:41:27;4.82;;;3.60;;
36931;SDS011;22847;42.654;23.370;2023-07-29T04:43:52;6.15;;;3.63;;
36931;SDS011;22847;42.654;23.370;2023-07-29T04:46:18;4.28;;;3.42;;
36931;SDS011;22847;42.654;23.370;2023-07-29T04:48:43;5.35;;;3.38;;
36931;SDS011;22847;42.654;23.370;2023-07-29T04:51:09;5.72;;;3.90;;
36931;SDS011;22847;42.654;23.370;2023-07-29T04:53:34;4.43;;;3.50;;
36931;SDS011;22847;42.654;23.370;2023-07-29T04:56:01;5.15;;;3.58;;
36931;SDS011;22847;42.654;23.370;2023-07-29T04:58:27;5.43;;;3.28;;
36931;SDS011;22847;42.654;23.370;2023-07-29T05:00:54;6.07;;;3.65;;
36931;SDS011;22847;42.654;23.370;2023-07-29T05:03:22;6.75;;;3.83;;
36931;SDS011;22847;42.654;23.370;2023-07-29T05:05:48;7.35;;;3.40;;
36931;SDS011;22847;42.654;23.370;2023-07-29T05:08:13;4.13;;;3.42;;
36931;SDS011;22847;42.654;23.370;2023-07-29T05:10:39;4.28;;;3.30;;
36931;SDS011;22847;42.654;23.370;2023-07-29T05:13:04;9.65;;;5.20;;
36931;SDS011;22847;42.654;23.370;2023-07-29T05:15:30;6.60;;;3.28;;
36931;SDS011;22847;42.654;23.370;2023-07-29T05:17:55;3.58;;;3.17;;
36931;SDS011;22847;42.654;23.370;2023-07-29T05:20:21;7.55;;;3.25;;
36931;SDS011;22847;42.654;23.370;2023-07-29T05:22:46;4.93;;;2.92;;
36931;SDS011;22847;42.654;23.370;2023-07-29T05:25:12;4.47;;;3.40;;
36931;SDS011;22847;42.654;23.370;2023-07-29T05:27:37;4.47;;;3.42;;
36931;SDS011;22847;42.654;23.370;2023-07-29T05:30:03;5.45;;;3.20;;
36931;SDS011;22847;42.654;23.370;2023-07-29T05:32:29;9.70;;;4.50;;
36931;SDS011;22847;42.654;23.370;2023-07-29T05:34:54;3.47;;;2.83;;
36931;SDS011;22847;42.654;23.370;2023-07-29T05:37:20;4.80;;;2.78;;
36931;SDS011;22847;42.654;23.370;2023-07-29T05:39:45;4.25;;;3.17;;
36931;SDS011;22847;42.654;23.370;2023-07-29T05:42:11;7.65;;;3.58;;
36931;SDS011;22847;42.654;23.370;2023-07-29T05:44:36;5.18;;;3.35;;
36931;SDS011;22847;42.654;23.370;2023-07-29T05:47:01;7.15;;;3.38;;
36931;SDS011;22847;42.654;23.370;2023-07-29T05:49:27;5.68;;;3.65;;
36931;SDS011;22847;42.654;23.370;2023-07-29T05:51:53;6.40;;;3.95;;
36931;SDS011;22847;42.654;23.370;2023-07-29T05:54:18;5.03;;;3.47;;
36931;SDS011;22847;42.654;23.370;2023-07-29T05:56:44;8.43;;;3.70;;
36931;SDS011;22847;42.654;23.370;2023-07-29T05:59:09;4.50;;;3.03;;
36931;SDS011;22847;42.654;23.370;2023-07-29T06:01:35;5.72;;;3.28;;
36931;SDS011;22847;42.654;23.370;2023-07-29T06:04:00;5.63;;;3.67;;
36931;SDS011;22847;42.654;23.370;2023-07-29T06:06:26;5.10;;;3.38;;
36931;SDS011;22847;42.654;23.370;2023-07-29T06:08:51;4.70;;;3.20;;
36931;SDS011;22847;42.654;23.370;2023-07-29T06:11:17;5.20;;;3.15;;
36931;SDS011;22847;42.654;23.370;2023-07-29T06:13:42;5.78;;;3.60;;
36931;SDS011;22847;42.654;23.370;2023-07-29T06:16:08;4.90;;;3.45;;
36931;SDS011;22847;42.654;23.370;2023-07-29T06:18:33;4.28;;;3.60;;
36931;SDS011;22847;42.654;23.370;2023-07-29T06:20:58;6.15;;;3.50;;
36931;SDS011;22847;42.654;23.370;2023-07-29T06:23:24;8.38;;;3.60;;
36931;SDS011;22847;42.654;23.370;2023-07-29T06:25:49;7.90;;;3.63;;
36931;SDS011;22847;42.654;23.370;2023-07-29T06:28:15;6.13;;;3.40;;
36931;SDS011;22847;42.654;23.370;2023-07-29T06:30:40;12.65;;;4.10;;
36931;SDS011;22847;42.654;23.370;2023-07-29T06:33:06;8.38;;;3.83;;
36931;SDS011;22847;42.654;23.370;2023-07-29T06:35:31;5.85;;;3.75;;
36931;SDS011;22847;42.654;23.370;2023-07-29T06:37:57;7.70;;;4.30;;
36931;SDS011;22847;42.654;23.370;2023-07-29T06:40:22;10.15;;;5.30;;
36931;SDS011;22847;42.654;23.370;2023-07-29T06:42:47;6.55;;;3.80;;
36931;SDS011;22847;42.654;23.370;2023-07-29T06:45:13;9.02;;;4.00;;
36931;SDS011;22847;42.654;23.370;2023-07-29T06:47:40;8.90;;;3.58;;
36931;SDS011;22847;42.654;23.370;2023-07-29T06:50:06;5.68;;;3.92;;
36931;SDS011;22847;42.654;23.370;2023-07-29T06:52:32;9.02;;;3.45;;
36931;SDS011;22847;42.654;23.370;2023-07-29T06:54:57;8.52;;;4.60;;
36931;SDS011;22847;42.654;23.370;2023-07-29T06:57:23;9.35;;;4.57;;
36931;SDS011;22847;42.654;23.370;2023-07-29T06:59:48;8.10;;;4.28;;
36931;SDS011;22847;42.654;23.370;2023-07-29T07:02:13;10.73;;;4.72;;
36931;SDS011;22847;42.654;23.370;2023-07-29T07:04:39;8.48;;;4.20;;
36931;SDS011;22847;42.654;23.370;2023-07-29T07:07:04;5.82;;;3.95;;
36931;SDS011;22847;42.654;23.370;2023-07-29T07:09:30;6.55;;;3.28;;
36931;SDS011;22847;42.654;23.370;2023-07-29T07:11:55;12.10;;;3.63;;
36931;SDS011;22847;42.654;23.370;2023-07-29T07:14:21;12.88;;;3.80;;
36931;SDS011;22847;42.654;23.370;2023-07-29T07:16:46;7.78;;;3.90;;
36931;SDS011;22847;42.654;23.370;2023-07-29T07:19:12;8.52;;;4.22;;
36931;SDS011;22847;42.654;23.370;2023-07-29T07:21:37;7.70;;;4.07;;
36931;SDS011;22847;42.654;23.370;2023-07-29T07:24:02;14.27;;;4.90;;
36931;SDS011;22847;42.654;23.370;2023-07-29T07:26:28;10.73;;;3.97;;
36931;SDS011;22847;42.654;23.370;2023-07-29T07:28:53;15.65;;;4.32;;
36931;SDS011;22847;42.654;23.370;2023-07-29T07:31:19;14.57;;;4.45;;
36931;SDS011;22847;42.654;23.370;2023-07-29T07:33:44;8.80;;;3.95;;
36931;SDS011;22847;42.654;23.370;2023-07-29T07:36:10;7.55;;;4.25;;
36931;SDS011;22847;42.654;23.370;2023-07-29T07:38:35;8.23;;;4.28;;
36931;SDS011;22847;42.654;23.370;2023-07-29T07:41:01;8.18;;;4.18;;
36931;SDS011;22847;42.654;23.370;2023-07-29T07:43:27;13.93;;;3.95;;
36931;SDS011;22847;42.654;23.370;2023-07-29T07:45:57;4.32;;;3.67;;
36931;SDS011;22847;42.654;23.370;2023-07-29T07:48:23;8.15;;;3.78;;
36931;SDS011;22847;42.654;23.370;2023-07-29T07:50:49;8.68;;;3.92;;
36931;SDS011;22847;42.654;23.370;2023-07-29T07:53:14;6.32;;;4.15;;
36931;SDS011;22847;42.654;23.370;2023-07-29T07:55:40;11.73;;;3.72;;
36931;SDS011;22847;42.654;23.370;2023-07-29T07:58:05;11.38;;;3.90;;
36931;SDS011;22847;42.654;23.370;2023-07-29T08:00:30;8.15;;;3.83;;
36931;SDS011;22847;42.654;23.370;2023-07-29T08:02:56;12.07;;;4.35;;
36931;SDS011;22847;42.654;23.370;2023-07-29T08:05:21;8.10;;;3.78;;
36931;SDS011;22847;42.654;23.370;2023-07-29T08:07:47;7.55;;;3.60;;
36931;SDS011;22847;42.654;23.370;2023-07-29T08:10:12;9.98;;;4.00;;
36931;SDS011;22847;42.654;23.370;2023-07-29T08:12:37;6.70;;;3.30;;
36931;SDS011;22847;42.654;23.370;2023-07-29T08:15:03;5.75;;;3.38;;
36931;SDS011;22847;42.654;23.370;2023-07-29T08:17:28;6.40;;;3.50;;
36931;SDS011;22847;42.654;23.370;2023-07-29T08:19:54;6.85;;;3.90;;
36931;SDS011;22847;42.654;23.370;2023-07-29T08:22:19;7.47;;;5.38;;
36931;SDS011;22847;42.654;23.370;2023-07-29T08:24:45;8.52;;;3.95;;
36931;SDS011;22847;42.654;23.370;2023-07-29T08:27:10;4.22;;;3.33;;
36931;SDS011;22847;42.654;23.370;2023-07-29T08:29:36;5.80;;;3.53;;
36931;SDS011;22847;42.654;23.370;2023-07-29T08:32:01;6.13;;;3.50;;
36931;SDS011;22847;42.654;23.370;2023-07-29T08:34:27;11.55;;;3.63;;
36931;SDS011;22847;42.654;23.370;2023-07-29T08:36:52;5.25;;;2.80;;
36931;SDS011;22847;42.654;23.370;2023-07-29T08:39:18;8.07;;;3.38;;
36931;SDS011;22847;42.654;23.370;2023-07-29T08:44:22;9.48;;;2.95;;
36931;SDS011;22847;42.654;23.370;2023-07-29T08:46:49;7.57;;;3.80;;
36931;SDS011;22847;42.654;23.370;2023-07-29T08:49:15;6.53;;;3.80;;
36931;SDS011;22847;42.654;23.370;2023-07-29T08:51:46;8.27;;;3.22;;
36931;SDS011;22847;42.654;23.370;2023-07-29T08:54:13;6.55;;;2.90;;
36931;SDS011;22847;42.654;23.370;2023-07-29T08:56:40;5.50;;;2.85;;
36931;SDS011;22847;42.654;23.370;2023-07-29T08:59:06;4.57;;;2.70;;
36931;SDS011;22847;42.654;23.370;2023-07-29T09:01:33;5.93;;;2.97;;
36931;SDS011;22847;42.654;23.370;2023-07-29T09:03:58;7.32;;;2.80;;
36931;SDS011;22847;42.654;23.370;2023-07-29T09:06:24;6.53;;;2.70;;
36931;SDS011;22847;42.654;23.370;2023-07-29T09:08:54;4.72;;;2.42;;
36931;SDS011;22847;42.654;23.370;2023-07-29T09:11:21;5.15;;;2.10;;
36931;SDS011;22847;42.654;23.370;2023-07-29T09:13:47;3.53;;;2.20;;
36931;SDS011;22847;42.654;23.370;2023-07-29T09:16:13;9.23;;;4.25;;
36931;SDS011;22847;42.654;23.370;2023-07-29T09:18:39;6.82;;;3.33;;
36931;SDS011;22847;42.654;23.370;2023-07-29T09:21:05;3.40;;;2.10;;
36931;SDS011;22847;42.654;23.370;2023-07-29T09:23:40;4.15;;;2.50;;
36931;SDS011;22847;42.654;23.370;2023-07-29T09:26:07;6.03;;;2.83;;
36931;SDS011;22847;42.654;23.370;2023-07-29T09:28:36;3.72;;;1.95;;
36931;SDS011;22847;42.654;23.370;2023-07-29T09:31:03;5.50;;;2.03;;
36931;SDS011;22847;42.654;23.370;2023-07-29T09:33:29;3.28;;;2.00;;
36931;SDS011;22847;42.654;23.370;2023-07-29T09:36:00;11.50;;;3.05;;
36931;SDS011;22847;42.654;23.370;2023-07-29T09:38:28;5.95;;;2.30;;
36931;SDS011;22847;42.654;23.370;2023-07-29T09:40:54;4.97;;;2.00;;
36931;SDS011;22847;42.654;23.370;2023-07-29T09:43:24;3.45;;;2.20;;
36931;SDS011;22847;42.654;23.370;2023-07-29T09:45:51;4.00;;;1.83;;
36931;SDS011;22847;42.654;23.370;2023-07-29T09:48:19;4.28;;;2.15;;
36931;SDS011;22847;42.654;23.370;2023-07-29T09:50:47;2.40;;;1.90;;
36931;SDS011;22847;42.654;23.370;2023-07-29T09:53:13;6.90;;;2.30;;
36931;SDS011;22847;42.654;23.370;2023-07-29T09:55:39;3.13;;;1.90;;
36931;SDS011;22847;42.654;23.370;2023-07-29T09:58:04;3.45;;;1.80;;
36931;SDS011;22847;42.654;23.370;2023-07-29T10:00:33;2.35;;;1.67;;
36931;SDS011;22847;42.654;23.370;2023-07-29T10:02:59;6.75;;;1.83;;
36931;SDS011;22847;42.654;23.370;2023-07-29T10:05:28;2.20;;;1.80;;
36931;SDS011;22847;42.654;23.370;2023-07-29T10:07:55;6.00;;;2.10;;
36931;SDS011;22847;42.654;23.370;2023-07-29T10:10:21;16.50;;;2.53;;
36931;SDS011;22847;42.654;23.370;2023-07-29T10:12:47;12.43;;;2.30;;
36931;SDS011;22847;42.654;23.370;2023-07-29T10:15:12;2.45;;;1.50;;
36931;SDS011;22847;42.654;23.370;2023-07-29T10:17:39;4.35;;;2.40;;
36931;SDS011;22847;42.654;23.370;2023-07-29T10:20:05;2.17;;;1.80;;
36931;SDS011;22847;42.654;23.370;2023-07-29T10:22:33;4.00;;;1.80;;
36931;SDS011;22847;42.654;23.370;2023-07-29T10:25:03;5.20;;;2.38;;
36931;SDS011;22847;42.654;23.370;2023-07-29T10:27:43;8.40;;;2.65;;
36931;SDS011;22847;42.654;23.370;2023-07-29T10:30:18;4.28;;;1.63;;
36931;SDS011;22847;42.654;23.370;2023-07-29T10:32:44;3.67;;;1.70;;
36931;SDS011;22847;42.654;23.370;2023-07-29T10:35:13;3.15;;;1.50;;
36931;SDS011;22847;42.654;23.370;2023-07-29T10:37:39;4.10;;;1.60;;
36931;SDS011;22847;42.654;23.370;2023-07-29T10:40:07;5.15;;;1.30;;
36931;SDS011;22847;42.654;23.370;2023-07-29T10:42:34;1.85;;;1.40;;
36931;SDS011;22847;42.654;23.370;2023-07-29T10:45:00;3.97;;;1.45;;
36931;SDS011;22847;42.654;23.370;2023-07-29T10:47:26;3.70;;;1.70;;
36931;SDS011;22847;42.654;23.370;2023-07-29T10:49:56;4.93;;;1.90;;
36931;SDS011;22847;42.654;23.370;2023-07-29T10:52:43;2.25;;;1.80;;
36931;SDS011;22847;42.654;23.370;2023-07-29T10:55:25;1.75;;;1.40;;
36931;SDS011;22847;42.654;23.370;2023-07-29T10:58:18;3.97;;;1.92;;
36931;SDS011;22847;42.654;23.370;2023-07-29T11:00:45;6.18;;;2.15;;
36931;SDS011;22847;42.654;23.370;2023-07-29T11:03:12;7.45;;;1.80;;
36931;SDS011;22847;42.654;23.370;2023-07-29T11:05:45;9.38;;;2.20;;
36931;SDS011;22847;42.654;23.370;2023-07-29T11:08:17;7.18;;;4.47;;
36931;SDS011;22847;42.654;23.370;2023-07-29T11:10:57;3.10;;;1.90;;
36931;SDS011;22847;42.654;23.370;2023-07-29T11:13:33;8.15;;;2.38;;
36931;SDS011;22847;42.654;23.370;2023-07-29T11:16:00;2.58;;;2.15;;
36931;SDS011;22847;42.654;23.370;2023-07-29T11:18:27;2.53;;;1.60;;
36931;SDS011;22847;42.654;23.370;2023-07-29T11:20:54;1.42;;;1.15;;
36931;SDS011;22847;42.654;23.370;2023-07-29T11:23:21;2.83;;;1.20;;
36931;SDS011;22847;42.654;23.370;2023-07-29T11:25:53;3.08;;;1.35;;
36931;SDS011;22847;42.654;23.370;2023-07-29T11:28:19;1.95;;;1.60;;
36931;SDS011;22847;42.654;23.370;2023-07-29T11:30:44;2.67;;;1.40;;
36931;SDS011;22847;42.654;23.370;2023-07-29T11:33:10;1.98;;;1.30;;
36931;SDS011;22847;42.654;23.370;2023-07-29T11:35:36;1.65;;;1.50;;
36931;SDS011;22847;42.654;23.370;2023-07-29T11:38:02;2.28;;;1.40;;
36931;SDS011;22847;42.654;23.370;2023-07-29T11:40:28;2.63;;;1.42;;
36931;SDS011;22847;42.654;23.370;2023-07-29T11:42:54;4.25;;;1.30;;
36931;SDS011;22847;42.654;23.370;2023-07-29T11:45:20;3.47;;;1.50;;
36931;SDS011;22847;42.654;23.370;2023-07-29T11:47:47;3.25;;;1.48;;
36931;SDS011;22847;42.654;23.370;2023-07-29T11:50:12;2.80;;;1.50;;
36931;SDS011;22847;42.654;23.370;2023-07-29T11:52:42;2.40;;;1.60;;
36931;SDS011;22847;42.654;23.370;2023-07-29T11:55:09;1.73;;;1.50;;
36931;SDS011;22847;42.654;23.370;2023-07-29T11:57:38;3.55;;;1.20;;
36931;SDS011;22847;42.654;23.370;2023-07-29T12:00:04;6.80;;;1.60;;
36931;SDS011;22847;42.654;23.370;2023-07-29T12:02:32;3.33;;;1.45;;
36931;SDS011;22847;42.654;23.370;2023-07-29T12:05:00;4.18;;;1.23;;
36931;SDS011;22847;42.654;23.370;2023-07-29T12:07:26;1.30;;;1.20;;
36931;SDS011;22847;42.654;23.370;2023-07-29T12:09:52;3.15;;;1.30;;
36931;SDS011;22847;42.654;23.370;2023-07-29T12:12:18;1.63;;;1.30;;
36931;SDS011;22847;42.654;23.370;2023-07-29T12:14:44;2.78;;;1.35;;
36931;SDS011;22847;42.654;23.370;2023-07-29T12:17:11;2.78;;;1.25;;
36931;SDS011;22847;42.654;23.370;2023-07-29T12:19:38;4.50;;;1.27;;
36931;SDS011;22847;42.654;23.370;2023-07-29T12:22:05;1.83;;;1.55;;
36931;SDS011;22847;42.654;23.370;2023-07-29T12:24:32;4.20;;;1.50;;
36931;SDS011;22847;42.654;23.370;2023-07-29T12:27:00;1.52;;;1.08;;
36931;SDS011;22847;42.654;23.370;2023-07-29T12:29:26;2.60;;;1.30;;
36931;SDS011;22847;42.654;23.370;2023-07-29T12:31:58;2.85;;;1.10;;
36931;SDS011;22847;42.654;23.370;2023-07-29T12:34:25;5.95;;;1.30;;
36931;SDS011;22847;42.654;23.370;2023-07-29T12:36:53;1.88;;;1.30;;
36931;SDS011;22847;42.654;23.370;2023-07-29T12:41:50;1.60;;;1.27;;
36931;SDS011;22847;42.654;23.370;2023-07-29T12:44:17;1.48;;;1.10;;
36931;SDS011;22847;42.654;23.370;2023-07-29T12:46:43;4.60;;;1.30;;
36931;SDS011;22847;42.654;23.370;2023-07-29T12:49:08;1.80;;;1.20;;
36931;SDS011;22847;42.654;23.370;2023-07-29T12:51:34;5.53;;;1.40;;
36931;SDS011;22847;42.654;23.370;2023-07-29T12:54:01;5.25;;;1.50;;
36931;SDS011;22847;42.654;23.370;2023-07-29T12:56:28;1.55;;;1.30;;
36931;SDS011;22847;42.654;23.370;2023-07-29T12:58:53;1.92;;;1.70;;
36931;SDS011;22847;42.654;23.370;2023-07-29T13:01:19;2.80;;;1.77;;
36931;SDS011;22847;42.654;23.370;2023-07-29T13:03:44;3.67;;;2.10;;
36931;SDS011;22847;42.654;23.370;2023-07-29T13:06:10;3.80;;;2.45;;
36931;SDS011;22847;42.654;23.370;2023-07-29T13:08:36;2.33;;;1.75;;
36931;SDS011;22847;42.654;23.370;2023-07-29T13:11:02;4.45;;;2.80;;
36931;SDS011;22847;42.654;23.370;2023-07-29T13:13:28;5.07;;;2.10;;
36931;SDS011;22847;42.654;23.370;2023-07-29T13:15:54;6.25;;;1.85;;
36931;SDS011;22847;42.654;23.370;2023-07-29T13:18:19;3.83;;;2.05;;
36931;SDS011;22847;42.654;23.370;2023-07-29T13:20:45;3.58;;;1.65;;
36931;SDS011;22847;42.654;23.370;2023-07-29T13:23:10;2.72;;;1.77;;
36931;SDS011;22847;42.654;23.370;2023-07-29T13:25:35;2.67;;;2.00;;
36931;SDS011;22847;42.654;23.370;2023-07-29T13:28:01;2.58;;;1.83;;
36931;SDS011;22847;42.654;23.370;2023-07-29T13:30:26;3.70;;;2.75;;
36931;SDS011;22847;42.654;23.370;2023-07-29T13:32:52;6.68;;;2.60;;
36931;SDS011;22847;42.654;23.370;2023-07-29T13:35:17;2.55;;;1.67;;
36931;SDS011;22847;42.654;23.370;2023-07-29T13:37:43;3.45;;;1.98;;
36931;SDS011;22847;42.654;23.370;2023-07-29T13:40:08;2.53;;;1.95;;
36931;SDS011;22847;42.654;23.370;2023-07-29T13:42:34;1.52;;;1.40;;
36931;SDS011;22847;42.654;23.370;2023-07-29T13:45:00;1.95;;;1.55;;
36931;SDS011;22847;42.654;23.370;2023-07-29T13:47:25;3.55;;;2.00;;
36931;SDS011;22847;42.654;23.370;2023-07-29T13:49:51;6.38;;;3.67;;
36931;SDS011;22847;42.654;23.370;2023-07-29T13:52:16;3.17;;;2.30;;
36931;SDS011;22847;42.654;23.370;2023-07-29T13:54:42;5.85;;;2.92;;
36931;SDS011;22847;42.654;23.370;2023-07-29T13:57:07;3.63;;;2.03;;
36931;SDS011;22847;42.654;23.370;2023-07-29T13:59:33;2.28;;;1.90;;
36931;SDS011;22847;42.654;23.370;2023-07-29T14:01:58;11.38;;;7.57;;
36931;SDS011;22847;42.654;23.370;2023-07-29T14:04:23;8.38;;;2.65;;
36931;SDS011;22847;42.654;23.370;2023-07-29T14:06:49;7.18;;;4.18;;
36931;SDS011;22847;42.654;23.370;2023-07-29T14:09:14;5.68;;;2.80;;
36931;SDS011;22847;42.654;23.370;2023-07-29T14:11:40;3.40;;;2.47;;
36931;SDS011;22847;42.654;23.370;2023-07-29T14:14:05;3.30;;;2.40;;
36931;SDS011;22847;42.654;23.370;2023-07-29T14:16:32;8.25;;;3.38;;
36931;SDS011;22847;42.654;23.370;2023-07-29T14:18:57;3.65;;;2.25;;
36931;SDS011;22847;42.654;23.370;2023-07-29T14:21:23;3.97;;;2.10;;
36931;SDS011;22847;42.654;23.370;2023-07-29T14:23:48;4.35;;;2.13;;
36931;SDS011;22847;42.654;23.370;2023-07-29T14:26:13;3.20;;;2.67;;
36931;SDS011;22847;42.654;23.370;2023-07-29T14:28:39;4.47;;;2.50;;
36931;SDS011;22847;42.654;23.370;2023-07-29T14:31:04;5.80;;;1.98;;
36931;SDS011;22847;42.654;23.370;2023-07-29T14:33:30;5.18;;;2.53;;
36931;SDS011;22847;42.654;23.370;2023-07-29T14:35:55;10.18;;;6.45;;
36931;SDS011;22847;42.654;23.370;2023-07-29T14:38:20;11.00;;;6.57;;
36931;SDS011;22847;42.654;23.370;2023-07-29T14:40:47;5.15;;;4.47;;